createdAt,value
2022-10-31T00:00:46.887Z,37.17
2022-10-31T00:03:16.441Z,34.72
2022-10-31T00:05:45.139Z,33.88
2022-10-31T00:08:13.174Z,32.28
2022-10-31T00:10:41.085Z,38.20
2022-10-31T00:13:09.553Z,32.17
2022-10-31T00:15:38.847Z,31.75
2022-10-31T00:18:07.818Z,27.70
2022-10-31T00:20:38.005Z,36.28
2022-10-31T00:23:07.206Z,33.22
2022-10-31T00:25:37.137Z,28.60
2022-10-31T00:28:06.018Z,34.67
2022-10-31T00:30:34.235Z,29.60
2022-10-31T00:33:02.367Z,31.25
2022-10-31T00:35:30.559Z,29.23
2022-10-31T00:37:59.736Z,30.60
2022-10-31T00:40:27.679Z,28.00
2022-10-31T00:42:55.595Z,28.52
2022-10-31T00:45:25.051Z,26.98
2022-10-31T00:47:52.895Z,35.85
2022-10-31T00:50:20.733Z,26.83
2022-10-31T00:52:48.817Z,32.90
2022-10-31T00:55:18.016Z,27.75
2022-10-31T00:57:48.520Z,29.70
2022-10-31T01:00:17.496Z,32.05
2022-10-31T01:02:45.813Z,24.33
2022-10-31T01:05:13.904Z,24.42
2022-10-31T01:07:42.852Z,25.25
2022-10-31T01:10:11.602Z,22.90
2022-10-31T01:12:42.097Z,27.88
2022-10-31T01:15:12.129Z,23.85
2022-10-31T01:17:40.028Z,32.33
2022-10-31T01:20:09.947Z,29.08
2022-10-31T01:22:38.389Z,24.35
2022-10-31T01:25:07.604Z,24.98
2022-10-31T01:27:35.493Z,25.02
2022-10-31T01:30:05.466Z,26.77
2022-10-31T01:32:33.376Z,23.92
2022-10-31T01:35:01.230Z,26.42
2022-10-31T01:37:29.236Z,26.70
2022-10-31T01:39:57.109Z,25.98
2022-10-31T01:42:25.551Z,21.40
2022-10-31T01:44:56.974Z,25.98
2022-10-31T01:47:45.730Z,29.63
2022-10-31T01:50:22.775Z,24.10
2022-10-31T01:52:53.537Z,22.00
2022-10-31T01:55:30.076Z,26.20
2022-10-31T01:58:03.371Z,21.58
2022-10-31T02:03:02.506Z,24.80
2022-10-31T02:05:32.415Z,22.15
2022-10-31T02:08:04.553Z,25.75
2022-10-31T02:10:34.919Z,20.58
2022-10-31T02:13:05.126Z,22.13
2022-10-31T02:15:34.767Z,30.38
2022-10-31T02:18:04.685Z,32.45
2022-10-31T02:20:38.113Z,29.05
2022-10-31T02:23:59.778Z,18.75
2022-10-31T02:27:06.397Z,23.48
2022-10-31T02:30:12.019Z,25.65
2022-10-31T02:32:55.721Z,24.50
2022-10-31T02:35:38.555Z,27.33
2022-10-31T02:38:18.513Z,23.00
2022-10-31T02:40:53.409Z,23.88
2022-10-31T02:43:56.664Z,24.60
2022-10-31T02:46:30.171Z,24.80
2022-10-31T02:49:05.823Z,22.80
2022-10-31T02:51:33.838Z,24.50
2022-10-31T02:54:01.752Z,27.73
2022-10-31T02:56:29.590Z,22.25
2022-10-31T02:59:01.821Z,20.45
2022-10-31T03:01:51.294Z,31.30
2022-10-31T03:04:36.633Z,23.30
2022-10-31T03:07:13.262Z,25.30
2022-10-31T03:09:49.145Z,18.48
2022-10-31T03:12:24.820Z,25.63
2022-10-31T03:14:58.605Z,20.50
2022-10-31T03:17:37.824Z,23.15
2022-10-31T03:20:10.007Z,23.33
2022-10-31T03:22:40.899Z,20.23
2022-10-31T03:25:10.258Z,21.75
2022-10-31T03:27:41.164Z,24.63
2022-10-31T03:30:10.346Z,26.13
2022-10-31T03:33:02.135Z,21.73
2022-10-31T03:35:35.389Z,19.80
2022-10-31T03:38:07.863Z,23.65
2022-10-31T03:40:39.177Z,21.80
2022-10-31T03:43:12.479Z,24.25
2022-10-31T03:45:45.163Z,27.58
2022-10-31T03:48:14.551Z,21.45
2022-10-31T03:50:51.101Z,16.48
2022-10-31T03:53:24.832Z,19.75
2022-10-31T03:55:58.818Z,28.10
2022-10-31T03:58:30.848Z,27.92
2022-10-31T04:01:02.967Z,25.83
2022-10-31T04:03:34.759Z,17.45
2022-10-31T04:06:09.179Z,22.37
2022-10-31T04:08:43.982Z,23.17
2022-10-31T04:11:18.464Z,18.88
2022-10-31T04:13:51.072Z,20.60
2022-10-31T04:16:25.177Z,17.42
2022-10-31T04:18:53.135Z,22.92
2022-10-31T04:21:30.103Z,17.80
2022-10-31T04:23:59.411Z,21.25
2022-10-31T04:26:30.222Z,22.02
2022-10-31T04:28:59.188Z,16.80
2022-10-31T04:31:29.342Z,20.80
2022-10-31T04:33:57.223Z,28.20
2022-10-31T04:36:26.550Z,19.98
2022-10-31T04:38:55.094Z,18.08
2022-10-31T04:41:35.957Z,20.70
2022-10-31T04:44:06.007Z,17.10
2022-10-31T04:46:34.077Z,22.80
2022-10-31T04:49:04.088Z,20.63
2022-10-31T04:51:33.328Z,19.20
2022-10-31T04:54:01.983Z,20.58
2022-10-31T04:56:30.059Z,21.25
2022-10-31T04:59:03.454Z,24.90
2022-10-31T05:01:42.262Z,23.67
2022-10-31T05:04:11.826Z,17.48
2022-10-31T05:06:40.982Z,17.80
2022-10-31T05:09:09.858Z,18.27
2022-10-31T05:11:37.824Z,23.50
2022-10-31T05:14:34.984Z,20.52
2022-10-31T05:17:23.066Z,17.02
2022-10-31T05:20:28.601Z,22.63
2022-10-31T05:23:06.822Z,17.13
2022-10-31T05:25:34.675Z,19.63
2022-10-31T05:28:05.536Z,22.92
2022-10-31T05:30:35.481Z,26.65
2022-10-31T05:33:05.134Z,18.92
2022-10-31T05:35:56.083Z,15.77
2022-10-31T05:38:36.183Z,22.92
2022-10-31T05:41:24.941Z,21.08
2022-10-31T05:43:55.715Z,24.00
2022-10-31T05:46:29.351Z,22.02
2022-10-31T05:49:03.340Z,23.63
2022-10-31T05:51:49.777Z,18.95
2022-10-31T05:54:19.003Z,20.63
2022-10-31T05:56:47.681Z,20.02
2022-10-31T05:59:15.627Z,26.15
2022-10-31T06:01:43.626Z,20.80
2022-10-31T06:04:27.303Z,23.65
2022-10-31T06:06:55.194Z,18.25
2022-10-31T06:09:25.787Z,24.42
2022-10-31T06:11:53.740Z,21.63
2022-10-31T06:14:27.309Z,27.40
2022-10-31T06:16:57.822Z,22.85
2022-10-31T06:19:44.287Z,19.17
2022-10-31T06:22:16.818Z,21.67
2022-10-31T06:24:46.719Z,20.55
2022-10-31T06:27:30.727Z,24.73
2022-10-31T06:30:01.148Z,29.30
2022-10-31T06:32:37.249Z,31.52
2022-10-31T06:35:05.797Z,20.52
2022-10-31T06:37:35.438Z,25.40
2022-10-31T06:40:15.774Z,23.73
2022-10-31T06:43:04.243Z,31.30
2022-10-31T06:45:33.228Z,26.27
2022-10-31T06:48:19.981Z,30.40
2022-10-31T06:51:06.908Z,24.52
2022-10-31T06:53:34.859Z,28.08
2022-10-31T06:56:06.400Z,19.20
2022-10-31T06:58:39.175Z,24.77
2022-10-31T07:01:09.463Z,25.20
2022-10-31T07:03:37.543Z,24.98
2022-10-31T07:06:05.646Z,26.00
2022-10-31T07:08:34.526Z,27.92
2022-10-31T07:11:03.133Z,27.52
2022-10-31T07:13:33.741Z,24.88
2022-10-31T07:16:12.935Z,24.20
2022-10-31T07:18:41.633Z,29.52
2022-10-31T07:21:10.406Z,26.17
2022-10-31T07:23:38.312Z,30.17
2022-10-31T07:26:24.582Z,31.70
2022-10-31T07:28:54.524Z,30.48
2022-10-31T07:31:25.655Z,27.90
2022-10-31T07:33:56.246Z,26.88
2022-10-31T07:36:26.661Z,28.02
2022-10-31T07:38:59.367Z,28.60
2022-10-31T07:41:27.347Z,42.80
2022-10-31T07:43:56.950Z,30.77
2022-10-31T07:46:56.977Z,30.33
2022-10-31T07:49:54.101Z,37.47
2022-10-31T07:52:40.871Z,37.20
2022-10-31T07:55:27.352Z,29.17
2022-10-31T07:58:00.519Z,28.67
2022-10-31T08:00:32.526Z,28.65
2022-10-31T08:03:02.197Z,36.35
2022-10-31T08:05:49.140Z,33.42
2022-10-31T08:08:38.503Z,28.85
2022-10-31T08:11:08.959Z,35.33
2022-10-31T08:13:36.909Z,33.28
2022-10-31T08:16:08.419Z,30.42
2022-10-31T08:18:41.563Z,37.78
2022-10-31T08:21:12.475Z,33.40
2022-10-31T08:23:40.471Z,36.55
2022-10-31T08:26:09.420Z,35.65
2022-10-31T08:28:37.320Z,33.72
2022-10-31T08:31:07.021Z,43.47
2022-10-31T08:33:40.733Z,32.63
2022-10-31T08:36:20.941Z,36.85
2022-10-31T08:39:09.054Z,40.42
2022-10-31T08:41:36.886Z,32.60
2022-10-31T08:44:04.974Z,27.55
2022-10-31T08:46:35.382Z,41.17
2022-10-31T08:49:03.457Z,32.97
2022-10-31T08:51:31.529Z,31.60
2022-10-31T08:53:59.490Z,34.80
2022-10-31T08:56:45.804Z,31.90
2022-10-31T08:59:33.963Z,33.92
2022-10-31T09:02:32.200Z,35.30
2022-10-31T09:05:01.839Z,40.47
2022-10-31T09:07:30.235Z,36.03
2022-10-31T09:09:59.356Z,34.67
2022-10-31T09:12:28.748Z,38.58
2022-10-31T09:15:02.930Z,36.58
2022-10-31T09:17:39.211Z,36.97
2022-10-31T09:20:37.603Z,34.90
2022-10-31T09:23:07.423Z,33.80
2022-10-31T09:25:38.975Z,39.05
2022-10-31T09:28:26.063Z,40.10
2022-10-31T09:30:56.410Z,39.42
2022-10-31T09:33:44.154Z,35.70
2022-10-31T09:36:45.177Z,35.40
2022-10-31T09:39:16.352Z,39.38
2022-10-31T09:42:00.090Z,40.15
2022-10-31T09:44:41.613Z,35.45
2022-10-31T09:47:23.990Z,45.85
2022-10-31T09:50:20.310Z,40.45
2022-10-31T09:53:00.146Z,47.67
2022-10-31T09:55:36.930Z,46.10
2022-10-31T09:58:07.670Z,44.08
2022-10-31T10:00:37.144Z,40.72
2022-10-31T10:03:13.566Z,44.88
2022-10-31T10:05:48.672Z,38.85
2022-10-31T10:08:29.189Z,40.55
2022-10-31T10:11:37.854Z,44.03
2022-10-31T10:14:31.953Z,37.45
2022-10-31T10:17:13.920Z,42.83
2022-10-31T10:19:58.647Z,39.35
2022-10-31T10:22:33.971Z,39.55
2022-10-31T10:25:15.977Z,36.67
2022-10-31T10:28:03.021Z,35.35
2022-10-31T10:30:37.787Z,34.38
2022-10-31T10:33:11.622Z,48.03
2022-10-31T10:35:45.090Z,34.92
2022-10-31T10:38:22.089Z,52.28
2022-10-31T10:40:50.219Z,34.17
2022-10-31T10:43:24.821Z,44.35
2022-10-31T10:46:18.904Z,42.83
2022-10-31T10:48:52.541Z,39.22
2022-10-31T10:51:38.917Z,42.25
2022-10-31T10:54:44.052Z,43.08
2022-10-31T10:57:24.659Z,37.25
2022-10-31T10:59:53.361Z,36.42
2022-10-31T11:02:24.097Z,44.72
2022-10-31T11:04:54.680Z,43.58
2022-10-31T11:07:23.196Z,33.92
2022-10-31T11:09:52.404Z,40.13
2022-10-31T11:12:24.015Z,38.90
2022-10-31T11:14:56.805Z,45.42
2022-10-31T11:17:32.314Z,35.88
2022-10-31T11:20:08.651Z,33.78
2022-10-31T11:22:36.784Z,41.42
2022-10-31T11:25:23.299Z,38.28
2022-10-31T11:28:01.454Z,33.83
2022-10-31T11:30:30.247Z,36.47
2022-10-31T11:32:59.187Z,40.50
2022-10-31T11:35:27.863Z,36.53
2022-10-31T11:37:59.767Z,38.03
2022-10-31T11:40:29.456Z,38.60
2022-10-31T11:42:59.683Z,37.75
2022-10-31T11:45:34.713Z,38.08
2022-10-31T11:48:04.397Z,37.85
2022-10-31T11:50:39.524Z,39.13
2022-10-31T11:53:16.929Z,40.05
2022-10-31T11:55:47.583Z,35.67
2022-10-31T11:58:26.722Z,39.65
2022-10-31T12:00:56.583Z,51.72
2022-10-31T12:03:41.235Z,41.85
2022-10-31T12:06:15.334Z,40.03
2022-10-31T12:08:44.124Z,38.85
2022-10-31T12:11:29.308Z,43.13
2022-10-31T12:14:09.189Z,43.53
2022-10-31T12:16:44.946Z,39.97
2022-10-31T12:19:23.855Z,39.33
2022-10-31T12:22:09.294Z,38.38
2022-10-31T12:24:56.983Z,38.25
2022-10-31T12:27:55.570Z,40.03
2022-10-31T12:30:27.820Z,35.78
2022-10-31T12:33:13.755Z,40.38
2022-10-31T12:35:49.957Z,41.47
2022-10-31T12:38:32.306Z,35.45
2022-10-31T12:41:15.856Z,39.05
2022-10-31T12:46:26.727Z,42.03
2022-10-31T12:49:17.481Z,42.95
2022-10-31T12:51:59.024Z,37.10
2022-10-31T12:54:47.890Z,41.20
2022-10-31T12:57:24.988Z,41.42
2022-10-31T12:59:59.879Z,34.85
2022-10-31T13:02:34.170Z,40.63
2022-10-31T13:05:05.303Z,39.95
2022-10-31T13:07:40.011Z,46.95
2022-10-31T13:10:16.735Z,37.20
2022-10-31T13:12:47.756Z,36.30
2022-10-31T13:15:20.462Z,39.50
2022-10-31T13:17:52.734Z,34.65
2022-10-31T13:20:26.146Z,36.50
2022-10-31T13:22:58.323Z,38.13
2022-10-31T13:25:30.314Z,39.07
2022-10-31T13:28:03.269Z,40.28
2022-10-31T13:30:35.902Z,41.95
2022-10-31T13:33:08.318Z,34.47
2022-10-31T13:35:44.087Z,48.67
2022-10-31T13:38:20.648Z,45.15
2022-10-31T13:40:56.666Z,49.97
2022-10-31T13:43:33.148Z,66.70
2022-10-31T13:46:02.381Z,38.92
2022-10-31T13:48:40.060Z,39.65
2022-10-31T13:51:10.300Z,153.32
2022-10-31T13:53:41.623Z,43.13
2022-10-31T13:56:23.210Z,48.45
2022-10-31T13:59:04.134Z,42.08
2022-10-31T14:01:35.184Z,49.58
2022-10-31T14:04:13.797Z,46.33
2022-10-31T14:06:49.278Z,48.17
2022-10-31T14:11:49.900Z,64.10
2022-10-31T14:14:19.222Z,84.07
2022-10-31T14:16:55.844Z,84.50
2022-10-31T14:19:24.841Z,58.03
2022-10-31T14:21:53.293Z,71.55
2022-10-31T14:24:36.145Z,97.90
2022-10-31T14:27:08.492Z,68.97
2022-10-31T14:29:36.526Z,87.20
2022-10-31T14:32:16.603Z,54.72
2022-10-31T14:34:53.946Z,67.95
2022-10-31T14:37:40.975Z,55.50
2022-10-31T14:40:25.846Z,52.33
2022-10-31T14:43:35.224Z,55.67
2022-10-31T14:46:06.061Z,58.47
2022-10-31T14:48:54.086Z,53.95
2022-10-31T14:51:24.091Z,59.67
2022-10-31T14:53:54.584Z,62.30
2022-10-31T14:56:28.020Z,67.40
2022-10-31T14:58:59.118Z,58.08
2022-10-31T15:01:30.350Z,59.05
2022-10-31T15:04:23.019Z,67.50
2022-10-31T15:06:56.425Z,61.03
2022-10-31T15:09:25.822Z,64.47
2022-10-31T15:11:54.002Z,69.38
2022-10-31T15:14:26.589Z,64.95
2022-10-31T15:16:54.600Z,58.87
2022-10-31T15:19:26.951Z,69.35
2022-10-31T15:21:57.724Z,66.82
2022-10-31T15:24:35.690Z,65.95
2022-10-31T15:27:05.464Z,59.55
2022-10-31T15:29:33.905Z,65.25
2022-10-31T15:32:03.721Z,69.95
2022-10-31T15:34:40.133Z,61.10
2022-10-31T15:37:14.684Z,61.35
2022-10-31T15:39:42.678Z,66.13
2022-10-31T15:42:21.819Z,64.15
2022-10-31T15:44:53.917Z,66.22
2022-10-31T15:47:25.261Z,68.30
2022-10-31T15:49:56.163Z,78.95
2022-10-31T15:52:33.257Z,80.53
2022-10-31T15:55:03.828Z,80.45
2022-10-31T15:57:32.511Z,69.90
2022-10-31T16:00:00.614Z,70.90
2022-10-31T16:02:29.669Z,65.38
2022-10-31T16:05:01.481Z,64.57
2022-10-31T16:07:31.330Z,86.88
2022-10-31T16:10:01.104Z,66.35
2022-10-31T16:12:34.094Z,72.80
2022-10-31T16:15:01.974Z,75.25
2022-10-31T16:17:30.334Z,78.65
2022-10-31T16:20:01.808Z,83.03
2022-10-31T16:22:32.101Z,78.35
2022-10-31T16:25:06.926Z,84.38
2022-10-31T16:27:36.772Z,81.47
2022-10-31T16:30:21.338Z,79.80
2022-10-31T16:32:58.991Z,80.95
2022-10-31T16:35:33.466Z,85.82
2022-10-31T16:38:01.316Z,100.72
2022-10-31T16:40:29.455Z,84.68
2022-10-31T16:42:59.833Z,80.18
2022-10-31T16:45:29.654Z,96.00
2022-10-31T16:48:05.304Z,101.97
2022-10-31T16:50:34.955Z,92.65
2022-10-31T16:53:18.240Z,87.40
2022-10-31T16:55:48.258Z,91.75
2022-10-31T16:58:19.743Z,86.25
2022-10-31T17:00:47.857Z,94.60
2022-10-31T17:03:15.759Z,88.07
2022-10-31T17:05:44.991Z,96.15
2022-10-31T17:08:12.963Z,95.88
2022-10-31T17:10:42.715Z,98.32
2022-10-31T17:13:17.723Z,100.20
2022-10-31T17:15:49.517Z,98.60
2022-10-31T17:18:21.686Z,94.13
2022-10-31T17:20:59.804Z,106.45
2022-10-31T17:23:28.037Z,91.78
2022-10-31T17:25:56.288Z,95.90
2022-10-31T17:28:25.072Z,99.38
2022-10-31T17:30:54.778Z,101.85
2022-10-31T17:33:22.899Z,86.68
2022-10-31T17:35:50.749Z,94.60
2022-10-31T17:38:20.017Z,96.57
2022-10-31T17:43:20.605Z,97.55
2022-10-31T17:45:49.018Z,88.28
2022-10-31T17:48:16.859Z,97.32
2022-10-31T17:50:44.965Z,98.00
2022-10-31T17:53:12.786Z,96.20
2022-10-31T17:55:42.234Z,91.80
2022-10-31T17:58:12.287Z,86.20
2022-10-31T18:00:44.754Z,92.60
2022-10-31T18:03:15.738Z,83.28
2022-10-31T18:05:52.661Z,83.68
2022-10-31T18:08:20.523Z,92.07
2022-10-31T18:10:49.720Z,87.60
2022-10-31T18:13:17.515Z,94.80
2022-10-31T18:15:45.357Z,86.07
2022-10-31T18:18:13.196Z,92.05
2022-10-31T18:20:41.653Z,103.15
2022-10-31T18:23:09.555Z,95.38
2022-10-31T18:25:38.878Z,94.50
2022-10-31T18:28:08.408Z,86.32
2022-10-31T18:30:40.603Z,88.22
2022-10-31T18:33:08.467Z,93.43
2022-10-31T18:35:37.852Z,89.93
2022-10-31T18:38:07.003Z,86.05
2022-10-31T18:40:36.203Z,89.20
2022-10-31T18:43:04.160Z,90.85
2022-10-31T18:45:45.871Z,79.90
2022-10-31T18:48:15.526Z,81.28
2022-10-31T18:50:43.606Z,77.50
2022-10-31T18:53:11.523Z,79.40
2022-10-31T18:55:43.993Z,82.57
2022-10-31T18:58:15.509Z,85.47
2022-10-31T19:00:44.853Z,77.78
2022-10-31T19:03:12.873Z,71.43
2022-10-31T19:05:40.714Z,77.15
2022-10-31T19:08:09.220Z,75.20
2022-10-31T19:10:37.628Z,68.35
2022-10-31T19:13:06.265Z,69.97
2022-10-31T19:15:36.041Z,78.78
2022-10-31T19:18:05.666Z,67.32
2022-10-31T19:20:33.779Z,65.47
2022-10-31T19:23:01.936Z,66.57
2022-10-31T19:25:29.912Z,72.22
2022-10-31T19:27:57.844Z,69.78
2022-10-31T19:30:25.868Z,67.75
2022-10-31T19:32:55.193Z,67.75
2022-10-31T19:35:24.406Z,68.68
2022-10-31T19:37:52.221Z,67.55
2022-10-31T19:40:20.248Z,70.65
2022-10-31T19:42:48.091Z,66.75
2022-10-31T19:45:16.036Z,67.20
2022-10-31T19:47:43.911Z,64.53
2022-10-31T19:50:11.794Z,59.55
2022-10-31T19:52:41.019Z,63.75
2022-10-31T19:55:09.514Z,57.55
2022-10-31T19:58:02.763Z,64.00
2022-10-31T20:00:25.155Z,62.53
2022-10-31T20:02:52.983Z,55.60
2022-10-31T20:05:20.852Z,57.58
2022-10-31T20:07:50.056Z,57.75
2022-10-31T20:10:17.952Z,63.10
2022-10-31T20:12:45.793Z,64.43
2022-10-31T20:15:13.641Z,62.05
2022-10-31T20:17:41.496Z,68.90
2022-10-31T20:20:09.755Z,61.75
2022-10-31T20:22:37.728Z,55.28
2022-10-31T20:25:08.067Z,53.00
2022-10-31T20:27:36.034Z,49.03
2022-10-31T20:30:04.168Z,52.80
2022-10-31T20:32:32.011Z,55.50
2022-10-31T20:34:59.944Z,53.67
2022-10-31T20:37:27.812Z,60.97
2022-10-31T20:39:56.630Z,56.25
2022-10-31T20:42:26.266Z,57.05
2022-10-31T20:44:54.106Z,51.00
2022-10-31T20:47:23.485Z,52.00
2022-10-31T20:49:53.766Z,53.63
2022-10-31T20:52:21.652Z,48.30
2022-10-31T20:54:49.539Z,56.38
2022-10-31T20:57:17.379Z,52.08
2022-10-31T20:59:46.676Z,53.35
2022-10-31T21:02:14.544Z,50.55
2022-10-31T21:04:42.472Z,52.72
2022-10-31T21:07:10.427Z,53.85
2022-10-31T21:09:38.264Z,53.28
2022-10-31T21:12:06.319Z,52.53
2022-10-31T21:14:34.434Z,50.95
2022-10-31T21:17:04.028Z,50.88
2022-10-31T21:19:31.948Z,50.17
2022-10-31T21:21:59.860Z,48.60
2022-10-31T21:24:28.850Z,51.03
2022-10-31T21:26:56.754Z,53.58
2022-10-31T21:29:25.044Z,51.65
2022-10-31T21:31:53.142Z,47.75
2022-10-31T21:34:22.560Z,45.28
2022-10-31T21:36:50.472Z,51.03
2022-10-31T21:39:18.434Z,45.97
2022-10-31T21:41:46.252Z,53.25
2022-10-31T21:44:14.412Z,51.13
2022-10-31T21:46:42.265Z,48.85
2022-10-31T21:49:11.587Z,45.17
2022-10-31T21:51:42.962Z,43.22
2022-10-31T21:54:28.681Z,47.92
2022-10-31T21:56:56.902Z,43.45
2022-10-31T21:59:24.807Z,50.67
2022-10-31T22:01:53.443Z,51.47
2022-10-31T22:04:21.367Z,46.28
2022-10-31T22:06:50.986Z,51.97
2022-10-31T22:09:20.140Z,48.75
2022-10-31T22:11:48.077Z,48.60
2022-10-31T22:14:16.561Z,49.53
2022-10-31T22:16:44.507Z,48.15
2022-10-31T22:19:13.854Z,49.38
2022-10-31T22:21:43.137Z,46.22
2022-10-31T22:24:12.901Z,54.72
2022-10-31T22:26:41.338Z,51.88
2022-10-31T22:29:13.624Z,52.22
2022-10-31T22:31:43.673Z,57.30
2022-10-31T22:34:12.210Z,50.50
2022-10-31T22:36:40.208Z,48.85
2022-10-31T22:39:08.845Z,56.20
2022-10-31T22:41:38.149Z,54.90
2022-10-31T22:44:06.490Z,51.45
2022-10-31T22:46:36.880Z,56.72
2022-10-31T22:49:07.816Z,60.17
2022-10-31T22:51:38.036Z,60.30
2022-10-31T22:54:08.139Z,62.13
2022-10-31T22:56:36.594Z,59.10
2022-10-31T22:59:06.288Z,65.90
2022-10-31T23:01:35.445Z,63.67
2022-10-31T23:04:03.765Z,62.53
2022-10-31T23:06:33.196Z,71.32
2022-10-31T23:09:02.834Z,59.40
2022-10-31T23:11:33.236Z,61.40
2022-10-31T23:14:10.894Z,60.42
2022-10-31T23:16:44.401Z,63.42
2022-10-31T23:22:00.002Z,70.85
2022-10-31T23:24:32.821Z,59.88
2022-10-31T23:27:10.710Z,67.70
2022-10-31T23:29:43.265Z,63.05
2022-10-31T23:32:16.649Z,64.20
2022-10-31T23:37:13.005Z,75.32
2022-10-31T23:39:41.285Z,78.03
2022-10-31T23:42:09.377Z,70.05
2022-10-31T23:44:37.445Z,74.70
2022-10-31T23:47:05.491Z,63.50
2022-10-31T23:49:35.238Z,70.40
2022-10-31T23:52:03.672Z,69.18
2022-10-31T23:54:31.981Z,65.30
2022-10-31T23:57:00.002Z,61.80
2022-10-31T23:59:29.091Z,67.65
